sensor_id;sensor_type;location;lat;lon;timestamp;temperature;humidity
35127;DHT22;21300;52.006;5.798;2024-02-21T00:02:19;8.50;99.90
35127;DHT22;21300;52.006;5.798;2024-02-21T00:04:45;8.50;99.90
35127;DHT22;21300;52.006;5.798;2024-02-21T00:07:11;8.50;99.90
35127;DHT22;21300;52.006;5.798;2024-02-21T00:09:37;8.50;99.90
35127;DHT22;21300;52.006;5.798;2024-02-21T00:12:02;8.50;99.90
35127;DHT22;21300;52.006;5.798;2024-02-21T00:14:29;8.50;99.90
35127;DHT22;21300;52.006;5.798;2024-02-21T00:16:55;8.50;99.90
35127;DHT22;21300;52.006;5.798;2024-02-21T00:19:20;8.50;99.90
35127;DHT22;21300;52.006;5.798;2024-02-21T00:21:46;8.50;99.90
35127;DHT22;21300;52.006;5.798;2024-02-21T00:24:12;8.50;99.90
35127;DHT22;21300;52.006;5.798;2024-02-21T00:26:37;8.50;99.90
35127;DHT22;21300;52.006;5.798;2024-02-21T00:29:03;8.50;99.90
35127;DHT22;21300;52.006;5.798;2024-02-21T00:31:29;8.50;99.90
35127;DHT22;21300;52.006;5.798;2024-02-21T00:33:54;8.50;99.90
35127;DHT22;21300;52.006;5.798;2024-02-21T00:36:20;8.50;99.90
35127;DHT22;21300;52.006;5.798;2024-02-21T00:38:46;8.50;99.90
35127;DHT22;21300;52.006;5.798;2024-02-21T00:41:11;8.50;99.90
35127;DHT22;21300;52.006;5.798;2024-02-21T00:43:37;8.40;99.90
35127;DHT22;21300;52.006;5.798;2024-02-21T00:46:05;8.50;99.90
35127;DHT22;21300;52.006;5.798;2024-02-21T00:48:30;8.50;99.90
35127;DHT22;21300;52.006;5.798;2024-02-21T00:50:56;8.50;99.90
35127;DHT22;21300;52.006;5.798;2024-02-21T00:53:22;8.50;99.90
35127;DHT22;21300;52.006;5.798;2024-02-21T00:55:47;8.50;99.90
35127;DHT22;21300;52.006;5.798;2024-02-21T00:58:13;8.50;99.90
35127;DHT22;21300;52.006;5.798;2024-02-21T01:00:39;8.40;99.90
35127;DHT22;21300;52.006;5.798;2024-02-21T01:03:04;8.50;99.90
35127;DHT22;21300;52.006;5.798;2024-02-21T01:05:30;8.40;99.90
35127;DHT22;21300;52.006;5.798;2024-02-21T01:07:56;8.50;99.90
35127;DHT22;21300;52.006;5.798;2024-02-21T01:10:21;8.40;99.90
35127;DHT22;21300;52.006;5.798;2024-02-21T01:12:48;8.50;99.90
35127;DHT22;21300;52.006;5.798;2024-02-21T01:15:13;8.40;99.90
35127;DHT22;21300;52.006;5.798;2024-02-21T01:17:39;8.40;99.90
35127;DHT22;21300;52.006;5.798;2024-02-21T01:20:06;8.40;99.90
35127;DHT22;21300;52.006;5.798;2024-02-21T01:22:32;8.40;99.90
35127;DHT22;21300;52.006;5.798;2024-02-21T01:24:58;8.50;99.90
35127;DHT22;21300;52.006;5.798;2024-02-21T01:27:24;8.40;99.90
35127;DHT22;21300;52.006;5.798;2024-02-21T01:29:49;8.50;99.90
35127;DHT22;21300;52.006;5.798;2024-02-21T01:32:16;8.40;99.90
35127;DHT22;21300;52.006;5.798;2024-02-21T01:34:42;8.50;99.90
35127;DHT22;21300;52.006;5.798;2024-02-21T01:37:07;8.50;99.90
35127;DHT22;21300;52.006;5.798;2024-02-21T01:39:33;8.50;99.90
35127;DHT22;21300;52.006;5.798;2024-02-21T01:41:59;8.50;99.90
35127;DHT22;21300;52.006;5.798;2024-02-21T01:44:25;8.50;99.90
35127;DHT22;21300;52.006;5.798;2024-02-21T01:46:52;8.50;99.90
35127;DHT22;21300;52.006;5.798;2024-02-21T01:49:18;8.50;99.90
35127;DHT22;21300;52.006;5.798;2024-02-21T01:51:44;8.50;99.90
35127;DHT22;21300;52.006;5.798;2024-02-21T01:54:10;8.50;99.90
35127;DHT22;21300;52.006;5.798;2024-02-21T01:56:38;8.60;99.90
35127;DHT22;21300;52.006;5.798;2024-02-21T01:59:04;8.60;99.90
35127;DHT22;21300;52.006;5.798;2024-02-21T02:01:29;8.60;99.90
35127;DHT22;21300;52.006;5.798;2024-02-21T02:03:56;8.60;99.90
35127;DHT22;21300;52.006;5.798;2024-02-21T02:06:22;8.60;99.90
35127;DHT22;21300;52.006;5.798;2024-02-21T02:08:48;8.60;99.90
35127;DHT22;21300;52.006;5.798;2024-02-21T02:11:14;8.50;99.90
35127;DHT22;21300;52.006;5.798;2024-02-21T02:13:39;8.60;99.90
35127;DHT22;21300;52.006;5.798;2024-02-21T02:16:05;8.60;99.90
35127;DHT22;21300;52.006;5.798;2024-02-21T02:18:31;8.50;99.90
35127;DHT22;21300;52.006;5.798;2024-02-21T02:20:57;8.50;99.90
35127;DHT22;21300;52.006;5.798;2024-02-21T02:23:30;8.50;99.90
35127;DHT22;21300;52.006;5.798;2024-02-21T02:25:59;8.50;99.90
35127;DHT22;21300;52.006;5.798;2024-02-21T02:28:26;8.50;99.90
35127;DHT22;21300;52.006;5.798;2024-02-21T02:30:52;8.50;99.90
35127;DHT22;21300;52.006;5.798;2024-02-21T02:33:18;8.40;99.90
35127;DHT22;21300;52.006;5.798;2024-02-21T02:35:44;8.50;99.90
35127;DHT22;21300;52.006;5.798;2024-02-21T02:38:10;8.40;99.90
35127;DHT22;21300;52.006;5.798;2024-02-21T02:40:38;8.40;99.90
35127;DHT22;21300;52.006;5.798;2024-02-21T02:43:04;8.40;99.90
35127;DHT22;21300;52.006;5.798;2024-02-21T02:45:30;8.40;99.90
35127;DHT22;21300;52.006;5.798;2024-02-21T02:47:57;8.40;99.90
35127;DHT22;21300;52.006;5.798;2024-02-21T02:50:26;8.40;99.90
35127;DHT22;21300;52.006;5.798;2024-02-21T02:52:53;8.40;99.90
35127;DHT22;21300;52.006;5.798;2024-02-21T02:55:19;8.40;99.90
35127;DHT22;21300;52.006;5.798;2024-02-21T02:57:45;8.40;99.90
35127;DHT22;21300;52.006;5.798;2024-02-21T03:00:12;8.40;99.90
35127;DHT22;21300;52.006;5.798;2024-02-21T03:02:42;8.40;99.90
35127;DHT22;21300;52.006;5.798;2024-02-21T03:05:16;8.40;99.90
35127;DHT22;21300;52.006;5.798;2024-02-21T03:07:42;8.40;99.90
35127;DHT22;21300;52.006;5.798;2024-02-21T03:10:09;8.30;99.90
35127;DHT22;21300;52.006;5.798;2024-02-21T03:12:35;8.30;99.90
35127;DHT22;21300;52.006;5.798;2024-02-21T03:15:01;8.30;99.90
35127;DHT22;21300;52.006;5.798;2024-02-21T03:17:27;8.30;99.90
35127;DHT22;21300;52.006;5.798;2024-02-21T03:19:53;8.30;99.90
35127;DHT22;21300;52.006;5.798;2024-02-21T03:22:21;8.30;99.90
35127;DHT22;21300;52.006;5.798;2024-02-21T03:24:46;8.30;99.90
35127;DHT22;21300;52.006;5.798;2024-02-21T03:27:12;8.30;99.90
35127;DHT22;21300;52.006;5.798;2024-02-21T03:29:38;8.30;99.90
35127;DHT22;21300;52.006;5.798;2024-02-21T03:32:03;8.30;99.90
35127;DHT22;21300;52.006;5.798;2024-02-21T03:34:29;8.30;99.90
35127;DHT22;21300;52.006;5.798;2024-02-21T03:36:55;8.30;99.90
35127;DHT22;21300;52.006;5.798;2024-02-21T03:39:20;8.20;99.90
35127;DHT22;21300;52.006;5.798;2024-02-21T03:41:47;8.30;99.90
35127;DHT22;21300;52.006;5.798;2024-02-21T03:44:12;8.20;99.90
35127;DHT22;21300;52.006;5.798;2024-02-21T03:46:38;8.20;99.90
35127;DHT22;21300;52.006;5.798;2024-02-21T03:49:04;8.30;99.90
35127;DHT22;21300;52.006;5.798;2024-02-21T03:51:29;8.30;99.90
35127;DHT22;21300;52.006;5.798;2024-02-21T03:53:55;8.30;99.90
35127;DHT22;21300;52.006;5.798;2024-02-21T03:56:21;8.20;99.90
35127;DHT22;21300;52.006;5.798;2024-02-21T03:58:46;8.20;99.90
35127;DHT22;21300;52.006;5.798;2024-02-21T04:01:14;8.20;99.90
35127;DHT22;21300;52.006;5.798;2024-02-21T04:03:40;8.20;99.90
35127;DHT22;21300;52.006;5.798;2024-02-21T04:06:06;8.20;99.90
35127;DHT22;21300;52.006;5.798;2024-02-21T04:08:31;8.20;99.90
35127;DHT22;21300;52.006;5.798;2024-02-21T04:10:57;8.20;99.90
35127;DHT22;21300;52.006;5.798;2024-02-21T04:13:23;8.20;99.90
35127;DHT22;21300;52.006;5.798;2024-02-21T04:15:48;8.20;99.90
35127;DHT22;21300;52.006;5.798;2024-02-21T04:18:14;8.20;99.90
35127;DHT22;21300;52.006;5.798;2024-02-21T04:20:40;8.20;99.90
35127;DHT22;21300;52.006;5.798;2024-02-21T04:23:06;8.20;99.90
35127;DHT22;21300;52.006;5.798;2024-02-21T04:25:31;8.20;99.90
35127;DHT22;21300;52.006;5.798;2024-02-21T04:27:58;8.20;99.90
35127;DHT22;21300;52.006;5.798;2024-02-21T04:30:24;8.20;99.90
35127;DHT22;21300;52.006;5.798;2024-02-21T04:32:50;8.20;99.90
35127;DHT22;21300;52.006;5.798;2024-02-21T04:35:16;8.20;99.90
35127;DHT22;21300;52.006;5.798;2024-02-21T04:37:42;8.20;99.90
35127;DHT22;21300;52.006;5.798;2024-02-21T04:40:08;8.10;99.90
35127;DHT22;21300;52.006;5.798;2024-02-21T04:42:34;8.20;99.90
35127;DHT22;21300;52.006;5.798;2024-02-21T04:45:00;8.20;99.90
35127;DHT22;21300;52.006;5.798;2024-02-21T04:47:26;8.10;99.90
35127;DHT22;21300;52.006;5.798;2024-02-21T04:49:53;8.10;99.90
35127;DHT22;21300;52.006;5.798;2024-02-21T04:52:19;8.20;99.90
35127;DHT22;21300;52.006;5.798;2024-02-21T04:54:44;8.20;99.90
35127;DHT22;21300;52.006;5.798;2024-02-21T04:57:10;8.20;99.90
35127;DHT22;21300;52.006;5.798;2024-02-21T04:59:36;8.10;99.90
35127;DHT22;21300;52.006;5.798;2024-02-21T05:02:03;8.10;99.90
35127;DHT22;21300;52.006;5.798;2024-02-21T05:04:29;8.10;99.90
35127;DHT22;21300;52.006;5.798;2024-02-21T05:06:54;8.10;99.90
35127;DHT22;21300;52.006;5.798;2024-02-21T05:09:20;8.10;99.90
35127;DHT22;21300;52.006;5.798;2024-02-21T05:11:46;8.20;99.90
35127;DHT22;21300;52.006;5.798;2024-02-21T05:14:13;8.10;99.90
35127;DHT22;21300;52.006;5.798;2024-02-21T05:16:39;8.10;99.90
35127;DHT22;21300;52.006;5.798;2024-02-21T05:19:05;8.10;99.90
35127;DHT22;21300;52.006;5.798;2024-02-21T05:21:30;8.10;99.90
35127;DHT22;21300;52.006;5.798;2024-02-21T05:23:56;8.10;99.90
35127;DHT22;21300;52.006;5.798;2024-02-21T05:26:25;8.10;99.90
35127;DHT22;21300;52.006;5.798;2024-02-21T05:28:52;8.10;99.90
35127;DHT22;21300;52.006;5.798;2024-02-21T05:31:18;8.10;99.90
35127;DHT22;21300;52.006;5.798;2024-02-21T05:33:44;8.10;99.90
35127;DHT22;21300;52.006;5.798;2024-02-21T05:36:10;8.10;99.90
35127;DHT22;21300;52.006;5.798;2024-02-21T05:38:38;8.10;99.90
35127;DHT22;21300;52.006;5.798;2024-02-21T05:41:03;8.10;99.90
35127;DHT22;21300;52.006;5.798;2024-02-21T05:43:29;8.10;99.90
35127;DHT22;21300;52.006;5.798;2024-02-21T05:45:55;8.10;99.90
35127;DHT22;21300;52.006;5.798;2024-02-21T05:48:22;8.10;99.90
35127;DHT22;21300;52.006;5.798;2024-02-21T05:50:47;8.10;99.90
35127;DHT22;21300;52.006;5.798;2024-02-21T05:53:13;8.10;99.90
35127;DHT22;21300;52.006;5.798;2024-02-21T05:55:39;8.10;99.90
35127;DHT22;21300;52.006;5.798;2024-02-21T05:58:05;8.10;99.90
35127;DHT22;21300;52.006;5.798;2024-02-21T06:00:32;8.10;99.90
35127;DHT22;21300;52.006;5.798;2024-02-21T06:02:58;8.10;99.90
35127;DHT22;21300;52.006;5.798;2024-02-21T06:05:23;8.10;99.90
35127;DHT22;21300;52.006;5.798;2024-02-21T06:07:49;8.10;99.90
35127;DHT22;21300;52.006;5.798;2024-02-21T06:10:15;8.10;99.90
35127;DHT22;21300;52.006;5.798;2024-02-21T06:12:41;8.10;99.90
35127;DHT22;21300;52.006;5.798;2024-02-21T06:15:07;8.10;99.90
35127;DHT22;21300;52.006;5.798;2024-02-21T06:17:32;8.10;99.90
35127;DHT22;21300;52.006;5.798;2024-02-21T06:19:58;8.10;99.90
35127;DHT22;21300;52.006;5.798;2024-02-21T06:22:24;8.00;99.90
35127;DHT22;21300;52.006;5.798;2024-02-21T06:24:49;8.10;99.90
35127;DHT22;21300;52.006;5.798;2024-02-21T06:27:15;8.10;99.90
35127;DHT22;21300;52.006;5.798;2024-02-21T06:29:42;8.10;99.90
35127;DHT22;21300;52.006;5.798;2024-02-21T06:32:07;8.10;99.90
35127;DHT22;21300;52.006;5.798;2024-02-21T06:34:33;8.10;99.90
35127;DHT22;21300;52.006;5.798;2024-02-21T06:36:58;8.10;99.90
35127;DHT22;21300;52.006;5.798;2024-02-21T06:39:24;8.10;99.90
35127;DHT22;21300;52.006;5.798;2024-02-21T06:41:50;8.10;99.90
35127;DHT22;21300;52.006;5.798;2024-02-21T06:44:21;8.00;99.90
35127;DHT22;21300;52.006;5.798;2024-02-21T06:46:46;8.10;99.90
35127;DHT22;21300;52.006;5.798;2024-02-21T06:49:12;8.10;99.90
35127;DHT22;21300;52.006;5.798;2024-02-21T06:51:42;8.10;99.90
35127;DHT22;21300;52.006;5.798;2024-02-21T06:54:08;8.10;99.90
35127;DHT22;21300;52.006;5.798;2024-02-21T06:56:37;8.10;99.90
35127;DHT22;21300;52.006;5.798;2024-02-21T06:59:03;8.10;99.90
35127;DHT22;21300;52.006;5.798;2024-02-21T07:01:29;8.10;99.90
35127;DHT22;21300;52.006;5.798;2024-02-21T07:03:55;8.10;99.90
35127;DHT22;21300;52.006;5.798;2024-02-21T07:06:21;8.10;99.90
35127;DHT22;21300;52.006;5.798;2024-02-21T07:08:47;8.10;99.90
35127;DHT22;21300;52.006;5.798;2024-02-21T07:11:13;8.10;99.90
35127;DHT22;21300;52.006;5.798;2024-02-21T07:13:38;8.10;99.90
35127;DHT22;21300;52.006;5.798;2024-02-21T07:16:05;8.10;99.90
35127;DHT22;21300;52.006;5.798;2024-02-21T07:18:31;8.10;99.90
35127;DHT22;21300;52.006;5.798;2024-02-21T07:20:56;8.10;99.90
35127;DHT22;21300;52.006;5.798;2024-02-21T07:23:22;8.10;99.90
35127;DHT22;21300;52.006;5.798;2024-02-21T07:25:48;8.10;99.90
35127;DHT22;21300;52.006;5.798;2024-02-21T07:28:13;8.10;99.90
35127;DHT22;21300;52.006;5.798;2024-02-21T07:30:39;8.10;99.90
35127;DHT22;21300;52.006;5.798;2024-02-21T07:33:05;8.10;99.90
35127;DHT22;21300;52.006;5.798;2024-02-21T07:35:32;8.10;99.90
35127;DHT22;21300;52.006;5.798;2024-02-21T07:37:58;8.10;99.90
35127;DHT22;21300;52.006;5.798;2024-02-21T07:40:23;8.10;99.90
35127;DHT22;21300;52.006;5.798;2024-02-21T07:42:49;8.10;99.90
35127;DHT22;21300;52.006;5.798;2024-02-21T07:45:15;8.10;99.90
35127;DHT22;21300;52.006;5.798;2024-02-21T07:47:41;8.10;99.90
35127;DHT22;21300;52.006;5.798;2024-02-21T07:50:07;8.10;99.90
35127;DHT22;21300;52.006;5.798;2024-02-21T07:52:40;8.10;99.90
35127;DHT22;21300;52.006;5.798;2024-02-21T07:55:08;8.20;99.90
35127;DHT22;21300;52.006;5.798;2024-02-21T07:57:36;8.20;99.90
35127;DHT22;21300;52.006;5.798;2024-02-21T08:00:02;8.20;99.90
35127;DHT22;21300;52.006;5.798;2024-02-21T08:02:30;8.20;99.90
35127;DHT22;21300;52.006;5.798;2024-02-21T08:04:57;8.20;99.90
35127;DHT22;21300;52.006;5.798;2024-02-21T08:07:23;8.20;99.90
35127;DHT22;21300;52.006;5.798;2024-02-21T08:09:49;8.20;99.90
35127;DHT22;21300;52.006;5.798;2024-02-21T08:12:14;8.20;99.90
35127;DHT22;21300;52.006;5.798;2024-02-21T08:14:40;8.30;99.90
35127;DHT22;21300;52.006;5.798;2024-02-21T08:17:05;8.20;99.90
35127;DHT22;21300;52.006;5.798;2024-02-21T08:19:31;8.30;99.90
35127;DHT22;21300;52.006;5.798;2024-02-21T08:21:57;8.30;99.90
35127;DHT22;21300;52.006;5.798;2024-02-21T08:24:24;8.30;99.90
35127;DHT22;21300;52.006;5.798;2024-02-21T08:26:49;8.30;99.90
35127;DHT22;21300;52.006;5.798;2024-02-21T08:29:15;8.30;99.90
35127;DHT22;21300;52.006;5.798;2024-02-21T08:31:41;8.40;99.90
35127;DHT22;21300;52.006;5.798;2024-02-21T08:34:07;8.40;99.90
35127;DHT22;21300;52.006;5.798;2024-02-21T08:36:33;8.50;99.90
35127;DHT22;21300;52.006;5.798;2024-02-21T08:39:00;8.50;99.90
35127;DHT22;21300;52.006;5.798;2024-02-21T08:41:26;8.50;99.90
35127;DHT22;21300;52.006;5.798;2024-02-21T08:43:53;8.50;99.90
35127;DHT22;21300;52.006;5.798;2024-02-21T08:46:23;8.50;99.90
35127;DHT22;21300;52.006;5.798;2024-02-21T08:48:50;8.50;99.90
35127;DHT22;21300;52.006;5.798;2024-02-21T08:51:17;8.60;99.90
35127;DHT22;21300;52.006;5.798;2024-02-21T08:53:44;8.60;99.90
35127;DHT22;21300;52.006;5.798;2024-02-21T08:56:10;8.60;99.90
35127;DHT22;21300;52.006;5.798;2024-02-21T08:58:36;8.60;99.90
35127;DHT22;21300;52.006;5.798;2024-02-21T09:01:03;8.60;99.90
35127;DHT22;21300;52.006;5.798;2024-02-21T09:03:31;8.60;99.90
35127;DHT22;21300;52.006;5.798;2024-02-21T09:05:57;8.60;99.90
35127;DHT22;21300;52.006;5.798;2024-02-21T09:08:23;8.60;99.90
35127;DHT22;21300;52.006;5.798;2024-02-21T09:10:50;8.60;99.90
35127;DHT22;21300;52.006;5.798;2024-02-21T09:13:16;8.70;99.90
35127;DHT22;21300;52.006;5.798;2024-02-21T09:15:42;8.70;99.90
35127;DHT22;21300;52.006;5.798;2024-02-21T09:18:08;8.70;99.90
35127;DHT22;21300;52.006;5.798;2024-02-21T09:20:34;8.70;99.90
35127;DHT22;21300;52.006;5.798;2024-02-21T09:22:59;8.70;99.90
35127;DHT22;21300;52.006;5.798;2024-02-21T09:25:25;8.80;99.90
35127;DHT22;21300;52.006;5.798;2024-02-21T09:27:51;8.80;99.90
35127;DHT22;21300;52.006;5.798;2024-02-21T09:30:19;8.80;99.90
35127;DHT22;21300;52.006;5.798;2024-02-21T09:32:45;8.80;99.90
35127;DHT22;21300;52.006;5.798;2024-02-21T09:35:11;8.80;99.90
35127;DHT22;21300;52.006;5.798;2024-02-21T09:37:38;8.80;99.90
35127;DHT22;21300;52.006;5.798;2024-02-21T09:40:04;8.90;99.90
35127;DHT22;21300;52.006;5.798;2024-02-21T09:42:41;8.90;99.90
35127;DHT22;21300;52.006;5.798;2024-02-21T09:45:24;9.00;99.90
35127;DHT22;21300;52.006;5.798;2024-02-21T09:48:22;9.00;99.90
35127;DHT22;21300;52.006;5.798;2024-02-21T09:50:51;8.90;99.90
35127;DHT22;21300;52.006;5.798;2024-02-21T09:53:18;9.00;99.90
35127;DHT22;21300;52.006;5.798;2024-02-21T09:55:45;9.00;99.90
35127;DHT22;21300;52.006;5.798;2024-02-21T09:58:12;9.00;99.90
35127;DHT22;21300;52.006;5.798;2024-02-21T10:00:38;9.00;99.90
35127;DHT22;21300;52.006;5.798;2024-02-21T10:03:04;9.00;99.90
35127;DHT22;21300;52.006;5.798;2024-02-21T10:05:36;9.00;99.90
35127;DHT22;21300;52.006;5.798;2024-02-21T10:08:03;9.00;99.90
35127;DHT22;21300;52.006;5.798;2024-02-21T10:12:51;9.00;99.90
35127;DHT22;21300;52.006;5.798;2024-02-21T10:15:20;9.20;99.90
35127;DHT22;21300;52.006;5.798;2024-02-21T10:17:48;9.20;99.90
35127;DHT22;21300;52.006;5.798;2024-02-21T10:20:14;9.20;99.90
35127;DHT22;21300;52.006;5.798;2024-02-21T10:22:40;9.30;99.90
35127;DHT22;21300;52.006;5.798;2024-02-21T10:25:10;9.30;99.90
35127;DHT22;21300;52.006;5.798;2024-02-21T10:27:39;9.30;99.90
35127;DHT22;21300;52.006;5.798;2024-02-21T10:30:13;9.30;99.90
35127;DHT22;21300;52.006;5.798;2024-02-21T10:32:57;9.20;99.90
35127;DHT22;21300;52.006;5.798;2024-02-21T10:37:56;9.20;99.90
35127;DHT22;21300;52.006;5.798;2024-02-21T10:40:27;9.20;99.90
35127;DHT22;21300;52.006;5.798;2024-02-21T10:42:58;9.20;99.90
35127;DHT22;21300;52.006;5.798;2024-02-21T10:45:31;9.20;99.90
35127;DHT22;21300;52.006;5.798;2024-02-21T10:48:13;9.20;99.90
35127;DHT22;21300;52.006;5.798;2024-02-21T10:51:03;9.10;99.90
35127;DHT22;21300;52.006;5.798;2024-02-21T10:56:29;9.10;99.90
35127;DHT22;21300;52.006;5.798;2024-02-21T10:58:58;9.10;99.90
35127;DHT22;21300;52.006;5.798;2024-02-21T11:01:23;9.00;99.90
35127;DHT22;21300;52.006;5.798;2024-02-21T11:03:51;9.10;99.90
35127;DHT22;21300;52.006;5.798;2024-02-21T11:06:19;9.10;99.90
35127;DHT22;21300;52.006;5.798;2024-02-21T11:08:46;9.10;99.90
35127;DHT22;21300;52.006;5.798;2024-02-21T11:11:13;9.10;99.90
35127;DHT22;21300;52.006;5.798;2024-02-21T11:13:42;9.10;99.90
35127;DHT22;21300;52.006;5.798;2024-02-21T11:16:21;9.20;99.90
35127;DHT22;21300;52.006;5.798;2024-02-21T11:18:47;9.20;99.90
35127;DHT22;21300;52.006;5.798;2024-02-21T11:21:13;9.30;99.90
35127;DHT22;21300;52.006;5.798;2024-02-21T11:23:39;9.30;99.90
35127;DHT22;21300;52.006;5.798;2024-02-21T11:26:17;9.30;99.90
35127;DHT22;21300;52.006;5.798;2024-02-21T11:28:44;9.20;99.90
35127;DHT22;21300;52.006;5.798;2024-02-21T11:31:14;9.20;99.90
35127;DHT22;21300;52.006;5.798;2024-02-21T11:33:40;9.20;99.90
35127;DHT22;21300;52.006;5.798;2024-02-21T11:36:08;9.20;99.90
35127;DHT22;21300;52.006;5.798;2024-02-21T11:38:34;9.20;99.90
35127;DHT22;21300;52.006;5.798;2024-02-21T11:40:59;9.20;99.90
35127;DHT22;21300;52.006;5.798;2024-02-21T11:43:25;9.20;99.90
35127;DHT22;21300;52.006;5.798;2024-02-21T11:45:58;9.10;99.90
35127;DHT22;21300;52.006;5.798;2024-02-21T11:48:24;9.10;99.90
35127;DHT22;21300;52.006;5.798;2024-02-21T11:50:54;9.10;99.90
35127;DHT22;21300;52.006;5.798;2024-02-21T11:53:20;9.10;99.90
35127;DHT22;21300;52.006;5.798;2024-02-21T11:55:46;9.10;99.90
35127;DHT22;21300;52.006;5.798;2024-02-21T11:58:12;9.10;99.90
35127;DHT22;21300;52.006;5.798;2024-02-21T12:00:37;9.00;99.90
35127;DHT22;21300;52.006;5.798;2024-02-21T12:03:04;9.10;99.90
35127;DHT22;21300;52.006;5.798;2024-02-21T12:05:30;9.10;99.90
35127;DHT22;21300;52.006;5.798;2024-02-21T12:07:56;9.10;99.90
35127;DHT22;21300;52.006;5.798;2024-02-21T12:10:25;9.10;99.90
35127;DHT22;21300;52.006;5.798;2024-02-21T12:12:51;9.10;99.90
35127;DHT22;21300;52.006;5.798;2024-02-21T12:15:18;9.10;99.90
35127;DHT22;21300;52.006;5.798;2024-02-21T12:17:44;9.20;99.90
35127;DHT22;21300;52.006;5.798;2024-02-21T12:20:10;9.30;99.90
35127;DHT22;21300;52.006;5.798;2024-02-21T12:22:41;9.30;99.90
35127;DHT22;21300;52.006;5.798;2024-02-21T12:25:20;9.40;99.90
35127;DHT22;21300;52.006;5.798;2024-02-21T12:27:48;9.50;99.90
35127;DHT22;21300;52.006;5.798;2024-02-21T12:30:15;9.70;99.90
35127;DHT22;21300;52.006;5.798;2024-02-21T12:32:41;9.70;99.90
35127;DHT22;21300;52.006;5.798;2024-02-21T12:35:07;9.80;99.90
35127;DHT22;21300;52.006;5.798;2024-02-21T12:37:33;9.80;99.90
35127;DHT22;21300;52.006;5.798;2024-02-21T12:39:59;9.90;99.90
35127;DHT22;21300;52.006;5.798;2024-02-21T12:42:25;9.90;99.90
35127;DHT22;21300;52.006;5.798;2024-02-21T12:44:54;9.90;99.90
35127;DHT22;21300;52.006;5.798;2024-02-21T12:47:20;9.90;99.90
35127;DHT22;21300;52.006;5.798;2024-02-21T12:49:49;9.90;99.90
35127;DHT22;21300;52.006;5.798;2024-02-21T12:52:14;9.90;99.90
35127;DHT22;21300;52.006;5.798;2024-02-21T12:54:40;10.00;99.90
35127;DHT22;21300;52.006;5.798;2024-02-21T12:57:06;10.00;99.90
35127;DHT22;21300;52.006;5.798;2024-02-21T12:59:31;10.00;99.90
35127;DHT22;21300;52.006;5.798;2024-02-21T13:01:57;9.90;99.90
35127;DHT22;21300;52.006;5.798;2024-02-21T13:04:23;10.00;99.90
35127;DHT22;21300;52.006;5.798;2024-02-21T13:06:49;10.00;99.90
35127;DHT22;21300;52.006;5.798;2024-02-21T13:09:15;10.00;99.90
35127;DHT22;21300;52.006;5.798;2024-02-21T13:11:42;9.90;99.90
35127;DHT22;21300;52.006;5.798;2024-02-21T13:14:08;9.90;99.90
35127;DHT22;21300;52.006;5.798;2024-02-21T13:16:34;9.90;99.90
35127;DHT22;21300;52.006;5.798;2024-02-21T13:19:05;9.90;99.90
35127;DHT22;21300;52.006;5.798;2024-02-21T13:21:30;9.90;99.90
35127;DHT22;21300;52.006;5.798;2024-02-21T13:23:56;9.90;99.90
35127;DHT22;21300;52.006;5.798;2024-02-21T13:26:22;10.00;99.90
35127;DHT22;21300;52.006;5.798;2024-02-21T13:28:48;10.00;99.90
35127;DHT22;21300;52.006;5.798;2024-02-21T13:31:14;10.00;99.90
35127;DHT22;21300;52.006;5.798;2024-02-21T13:33:42;10.00;99.90
35127;DHT22;21300;52.006;5.798;2024-02-21T13:36:09;10.10;99.90
35127;DHT22;21300;52.006;5.798;2024-02-21T13:38:35;10.10;99.90
35127;DHT22;21300;52.006;5.798;2024-02-21T13:41:01;10.10;99.90
35127;DHT22;21300;52.006;5.798;2024-02-21T13:43:26;10.10;99.90
35127;DHT22;21300;52.006;5.798;2024-02-21T13:46:00;10.10;99.90
35127;DHT22;21300;52.006;5.798;2024-02-21T13:48:28;10.20;99.90
35127;DHT22;21300;52.006;5.798;2024-02-21T13:50:55;10.10;99.90
35127;DHT22;21300;52.006;5.798;2024-02-21T13:53:20;10.10;99.90
35127;DHT22;21300;52.006;5.798;2024-02-21T13:55:47;10.20;99.90
35127;DHT22;21300;52.006;5.798;2024-02-21T13:58:13;10.10;99.90
35127;DHT22;21300;52.006;5.798;2024-02-21T14:00:38;10.10;99.90
35127;DHT22;21300;52.006;5.798;2024-02-21T14:03:04;10.10;99.90
35127;DHT22;21300;52.006;5.798;2024-02-21T14:05:30;10.10;99.90
35127;DHT22;21300;52.006;5.798;2024-02-21T14:07:56;10.10;99.90
35127;DHT22;21300;52.006;5.798;2024-02-21T14:10:22;10.10;99.90
35127;DHT22;21300;52.006;5.798;2024-02-21T14:12:48;10.10;99.90
35127;DHT22;21300;52.006;5.798;2024-02-21T14:15:14;10.10;99.90
35127;DHT22;21300;52.006;5.798;2024-02-21T14:17:39;10.10;99.90
35127;DHT22;21300;52.006;5.798;2024-02-21T14:20:07;10.10;99.90
35127;DHT22;21300;52.006;5.798;2024-02-21T14:22:33;10.10;99.90
35127;DHT22;21300;52.006;5.798;2024-02-21T14:24:59;10.10;99.90
35127;DHT22;21300;52.006;5.798;2024-02-21T14:27:25;10.10;99.90
35127;DHT22;21300;52.006;5.798;2024-02-21T14:29:51;10.10;99.90
35127;DHT22;21300;52.006;5.798;2024-02-21T14:32:17;10.00;99.90
35127;DHT22;21300;52.006;5.798;2024-02-21T14:34:42;10.10;99.90
35127;DHT22;21300;52.006;5.798;2024-02-21T14:37:08;10.00;99.90
35127;DHT22;21300;52.006;5.798;2024-02-21T14:39:33;10.00;99.90
35127;DHT22;21300;52.006;5.798;2024-02-21T14:42:00;10.00;99.90
35127;DHT22;21300;52.006;5.798;2024-02-21T14:44:26;10.00;99.90
35127;DHT22;21300;52.006;5.798;2024-02-21T14:46:52;10.00;99.90
35127;DHT22;21300;52.006;5.798;2024-02-21T14:49:18;10.00;99.90
35127;DHT22;21300;52.006;5.798;2024-02-21T14:51:44;10.00;99.90
35127;DHT22;21300;52.006;5.798;2024-02-21T14:54:10;10.00;99.90
35127;DHT22;21300;52.006;5.798;2024-02-21T14:56:36;10.00;99.90
35127;DHT22;21300;52.006;5.798;2024-02-21T14:59:02;10.00;99.90
35127;DHT22;21300;52.006;5.798;2024-02-21T15:01:36;9.90;99.90
35127;DHT22;21300;52.006;5.798;2024-02-21T15:04:04;9.90;99.90
35127;DHT22;21300;52.006;5.798;2024-02-21T15:06:29;9.80;99.90
35127;DHT22;21300;52.006;5.798;2024-02-21T15:08:57;9.80;99.90
35127;DHT22;21300;52.006;5.798;2024-02-21T15:11:23;9.70;99.90
35127;DHT22;21300;52.006;5.798;2024-02-21T15:13:49;9.80;99.90
35127;DHT22;21300;52.006;5.798;2024-02-21T15:16:14;9.70;99.90
35127;DHT22;21300;52.006;5.798;2024-02-21T15:18:42;9.70;99.90
35127;DHT22;21300;52.006;5.798;2024-02-21T15:21:07;9.70;99.90
35127;DHT22;21300;52.006;5.798;2024-02-21T15:23:39;9.70;99.90
35127;DHT22;21300;52.006;5.798;2024-02-21T15:26:05;9.60;99.90
35127;DHT22;21300;52.006;5.798;2024-02-21T15:28:33;9.60;99.90
35127;DHT22;21300;52.006;5.798;2024-02-21T15:30:58;9.50;99.90
35127;DHT22;21300;52.006;5.798;2024-02-21T15:33:24;9.50;99.90
35127;DHT22;21300;52.006;5.798;2024-02-21T15:35:51;9.50;99.90
35127;DHT22;21300;52.006;5.798;2024-02-21T15:38:17;9.40;99.90
35127;DHT22;21300;52.006;5.798;2024-02-21T15:40:42;9.30;99.90
35127;DHT22;21300;52.006;5.798;2024-02-21T15:43:08;9.30;99.90
35127;DHT22;21300;52.006;5.798;2024-02-21T15:45:34;9.30;99.90
35127;DHT22;21300;52.006;5.798;2024-02-21T15:48:00;9.20;99.90
35127;DHT22;21300;52.006;5.798;2024-02-21T15:50:25;9.20;99.90